Time;durP1;ratioP1;P1;durP2;ratioP2;P2;SDS_P1;SDS_P2;PMS_P1;PMS_P2;Temp;Humidity;BMP_temperature;BMP_pressure;BME280_temperature;BME280_humidity;BME280_pressure;Samples;Min_cycle;Max_cycle;Signal;HPM_P1;HPM_P2
2024/02/17 00:00:43;;;;;;;15.05;9.80;;;11.20;93.00;;;;;;5091314;28;20099;-31
2024/02/17 00:03:12;;;;;;;19.20;10.48;;;11.10;93.00;;;;;;5091559;28;20027;-30
2024/02/17 00:05:39;;;;;;;15.10;10.32;;;11.10;93.00;;;;;;5091206;28;20028;-35
2024/02/17 00:08:05;;;;;;;12.68;9.68;;;11.10;93.10;;;;;;5091499;28;20028;-31
2024/02/17 00:10:30;;;;;;;14.25;9.25;;;11.00;93.10;;;;;;5091135;28;20035;-34
2024/02/17 00:12:56;;;;;;;14.07;9.30;;;11.00;93.10;;;;;;5091577;28;20036;-30
2024/02/17 00:15:21;;;;;;;13.30;9.02;;;11.00;93.10;;;;;;5091204;28;20469;-33
2024/02/17 00:17:47;;;;;;;12.15;9.30;;;11.00;93.20;;;;;;5091123;28;20077;-31
2024/02/17 00:20:14;;;;;;;12.88;9.55;;;11.00;93.20;;;;;;5091442;28;20484;-30
2024/02/17 00:22:40;;;;;;;13.00;9.05;;;11.00;93.20;;;;;;5091220;28;20020;-35
2024/02/17 00:25:06;;;;;;;14.85;10.00;;;11.10;93.20;;;;;;5091446;28;20106;-30
2024/02/17 00:27:32;;;;;;;15.93;9.98;;;11.00;93.10;;;;;;5091101;28;20036;-30
2024/02/17 00:29:58;;;;;;;15.15;10.55;;;11.10;93.10;;;;;;5090006;28;20044;-30
2024/02/17 00:32:23;;;;;;;13.93;9.90;;;11.10;93.10;;;;;;5091062;28;20020;-32
2024/02/17 00:34:49;;;;;;;13.68;9.65;;;11.10;93.10;;;;;;5090971;28;20067;-35
2024/02/17 00:37:15;;;;;;;13.98;10.20;;;11.10;93.10;;;;;;5091383;28;20036;-30
2024/02/17 00:39:40;;;;;;;15.98;10.23;;;11.10;93.00;;;;;;5090778;28;20568;-31
2024/02/17 00:42:07;;;;;;;13.93;9.57;;;11.10;93.10;;;;;;5090947;28;20047;-31
2024/02/17 00:44:32;;;;;;;16.30;10.70;;;11.10;93.10;;;;;;5091240;28;20138;-37
2024/02/17 00:46:58;;;;;;;14.15;10.38;;;11.10;93.00;;;;;;5090844;28;20501;-35
2024/02/17 00:49:24;;;;;;;12.82;9.50;;;11.10;93.00;;;;;;5091186;28;20477;-32
2024/02/17 00:51:49;;;;;;;14.13;9.98;;;11.20;93.10;;;;;;5090811;28;20400;-32
2024/02/17 00:54:15;;;;;;;14.82;10.60;;;11.20;93.10;;;;;;5091072;28;20017;-32
2024/02/17 00:56:41;;;;;;;12.68;9.55;;;11.20;93.10;;;;;;5091128;28;20484;-34
2024/02/17 00:59:06;;;;;;;14.93;10.13;;;11.20;93.00;;;;;;5092729;28;20028;-36
2024/02/17 01:01:32;;;;;;;15.02;10.13;;;11.20;93.00;;;;;;5094587;28;20028;-32
2024/02/17 01:03:58;;;;;;;16.60;9.75;;;11.20;93.00;;;;;;5094687;28;20418;-35
2024/02/17 01:06:24;;;;;;;14.02;10.40;;;11.20;93.00;;;;;;5094289;28;20107;-31
2024/02/17 01:08:50;;;;;;;13.30;9.57;;;11.20;93.10;;;;;;5094122;28;20103;-31
2024/02/17 01:11:17;;;;;;;16.20;10.73;;;11.10;93.00;;;;;;5094096;28;20067;-31
2024/02/17 01:13:43;;;;;;;16.60;10.07;;;11.10;93.00;;;;;;5094378;28;20032;-31
2024/02/17 01:16:08;;;;;;;19.50;10.85;;;11.10;93.00;;;;;;5094206;28;20495;-33
2024/02/17 01:18:34;;;;;;;16.92;10.85;;;11.10;93.00;;;;;;5094070;28;20026;-31
2024/02/17 01:20:59;;;;;;;17.92;11.18;;;11.10;93.00;;;;;;5093931;28;20020;-33
2024/02/17 01:23:25;;;;;;;17.02;10.98;;;11.00;93.00;;;;;;5094155;28;20089;-30
2024/02/17 01:25:51;;;;;;;19.05;11.38;;;11.00;93.10;;;;;;5093957;28;20074;-30
2024/02/17 01:28:16;;;;;;;19.20;10.55;;;11.10;93.10;;;;;;5094011;28;20070;-34
2024/02/17 01:30:42;;;;;;;17.42;10.98;;;11.00;93.00;;;;;;5093892;28;20028;-32
2024/02/17 01:33:07;;;;;;;15.77;10.35;;;11.00;93.10;;;;;;5093676;28;20039;-30
2024/02/17 01:35:33;;;;;;;14.85;10.85;;;11.00;93.10;;;;;;5094077;28;20074;-30
2024/02/17 01:38:02;;;;;;;14.70;10.32;;;11.00;93.00;;;;;;5093772;28;20578;-32
2024/02/17 01:40:28;;;;;;;15.07;10.63;;;11.10;93.10;;;;;;5093540;28;20020;-32
2024/02/17 01:42:54;;;;;;;19.50;11.32;;;11.00;93.10;;;;;;5093847;28;20031;-30
2024/02/17 01:45:20;;;;;;;15.70;10.98;;;11.00;93.00;;;;;;5093472;28;20020;-31
2024/02/17 01:47:46;;;;;;;16.92;10.75;;;11.00;93.10;;;;;;5093616;28;20020;-30
2024/02/17 01:50:12;;;;;;;16.10;10.75;;;11.00;93.10;;;;;;5093592;28;20361;-31
2024/02/17 01:52:38;;;;;;;15.43;10.65;;;11.00;93.10;;;;;;5093359;28;20035;-33
2024/02/17 01:55:05;;;;;;;18.23;11.32;;;11.00;93.10;;;;;;5093170;28;20028;-31
2024/02/17 01:57:31;;;;;;;16.80;11.15;;;11.00;93.10;;;;;;5093653;28;20021;-34
2024/02/17 01:59:57;;;;;;;17.63;11.68;;;11.00;93.10;;;;;;5093190;28;20062;-31
2024/02/17 02:02:23;;;;;;;19.35;11.07;;;11.00;93.00;;;;;;5092447;28;20016;-31
2024/02/17 02:04:49;;;;;;;17.48;11.38;;;11.00;93.10;;;;;;5093362;28;20020;-31
2024/02/17 02:07:14;;;;;;;18.50;10.77;;;11.00;93.10;;;;;;5093153;28;20350;-31
2024/02/17 02:09:40;;;;;;;17.17;11.27;;;11.00;93.10;;;;;;5092853;28;20465;-31
2024/02/17 02:12:06;;;;;;;20.70;11.38;;;11.00;93.00;;;;;;5093113;28;20036;-32
2024/02/17 02:14:31;;;;;;;17.13;10.63;;;11.00;93.00;;;;;;5092969;28;20392;-32
2024/02/17 02:16:57;;;;;;;19.45;11.77;;;11.00;93.00;;;;;;5092989;28;20028;-31
2024/02/17 02:19:23;;;;;;;18.90;10.88;;;11.00;93.00;;;;;;5092729;28;20384;-30
2024/02/17 02:21:49;;;;;;;14.90;10.70;;;11.00;93.00;;;;;;5092815;28;20031;-36
2024/02/17 02:24:14;;;;;;;17.08;11.52;;;11.00;93.10;;;;;;5091849;28;20047;-31
2024/02/17 02:26:40;;;;;;;18.00;10.63;;;11.00;93.00;;;;;;5092745;28;20396;-31
2024/02/17 02:29:05;;;;;;;18.88;10.93;;;11.00;93.00;;;;;;5092835;28;20449;-30
2024/02/17 02:31:31;;;;;;;17.42;11.55;;;11.00;93.00;;;;;;5092648;28;20028;-32
2024/02/17 02:33:58;;;;;;;20.15;11.45;;;11.00;93.00;;;;;;5092622;28;20065;-31
2024/02/17 02:36:23;;;;;;;20.52;12.07;;;11.00;93.00;;;;;;5092502;28;20044;-31
2024/02/17 02:38:50;;;;;;;20.77;11.57;;;10.90;93.00;;;;;;5091111;28;20085;-33
2024/02/17 02:41:16;;;;;;;19.02;11.32;;;10.90;93.00;;;;;;5091207;28;20020;-30
2024/02/17 02:43:43;;;;;;;15.90;10.68;;;11.00;93.00;;;;;;5092705;28;20032;-31
2024/02/17 02:46:09;;;;;;;20.85;11.82;;;10.90;93.30;;;;;;5092472;28;20023;-31
2024/02/17 02:48:35;;;;;;;18.33;11.13;;;10.90;93.00;;;;;;5092306;28;20068;-30
2024/02/17 02:51:01;;;;;;;19.08;11.55;;;10.90;93.00;;;;;;5092513;28;20424;-32
2024/02/17 02:53:26;;;;;;;19.30;11.57;;;10.90;93.00;;;;;;5092274;28;20026;-33
2024/02/17 02:55:53;;;;;;;18.73;11.32;;;11.00;93.00;;;;;;5092398;28;20036;-33
2024/02/17 02:58:19;;;;;;;21.08;13.13;;;11.00;93.00;;;;;;5092165;28;20012;-32
2024/02/17 03:00:45;;;;;;;19.55;11.57;;;11.00;93.00;;;;;;5092083;28;20069;-29
2024/02/17 03:03:11;;;;;;;22.67;11.63;;;11.00;93.00;;;;;;5091940;28;20013;-32
2024/02/17 03:05:37;;;;;;;20.60;12.48;;;11.00;93.00;;;;;;5092275;28;20024;-30
2024/02/17 03:08:03;;;;;;;21.00;11.75;;;11.00;93.00;;;;;;5091963;28;20026;-33
2024/02/17 03:10:28;;;;;;;21.05;12.10;;;11.00;93.00;;;;;;5092152;28;20028;-32
2024/02/17 03:12:55;;;;;;;18.55;11.80;;;11.00;92.90;;;;;;5091885;28;20384;-30
2024/02/17 03:15:21;;;;;;;20.90;13.00;;;11.00;92.90;;;;;;5091807;28;20106;-31
2024/02/17 03:17:47;;;;;;;21.60;12.90;;;11.00;93.00;;;;;;5091832;28;20024;-30
2024/02/17 03:20:14;;;;;;;20.52;12.13;;;11.00;92.90;;;;;;5091842;28;20026;-33
2024/02/17 03:22:41;;;;;;;20.27;12.18;;;11.00;93.00;;;;;;5091624;28;20024;-32
2024/02/17 03:25:07;;;;;;;24.08;13.18;;;11.00;93.00;;;;;;5091769;28;20039;-31
2024/02/17 03:27:34;;;;;;;22.27;12.40;;;11.00;93.00;;;;;;5091745;28;20020;-34
2024/02/17 03:30:02;;;;;;;20.75;13.02;;;11.00;93.00;;;;;;5091592;28;20028;-32
2024/02/17 03:32:29;;;;;;;17.88;11.85;;;11.00;92.90;;;;;;5091550;28;20021;-33
2024/02/17 03:34:55;;;;;;;21.77;13.23;;;11.00;92.90;;;;;;5091326;28;20086;-31
2024/02/17 03:37:21;;;;;;;20.40;12.10;;;10.90;92.90;;;;;;5091592;28;20054;-34
2024/02/17 03:39:48;;;;;;;16.40;11.82;;;10.90;92.90;;;;;;5091417;28;20017;-32
2024/02/17 03:42:14;;;;;;;23.45;13.02;;;10.90;93.00;;;;;;5091738;28;20055;-33
2024/02/17 03:44:39;;;;;;;18.77;11.75;;;10.90;93.00;;;;;;5091260;28;20028;-31
2024/02/17 03:47:05;;;;;;;18.05;12.15;;;10.90;93.00;;;;;;5091538;28;20027;-32
2024/02/17 03:49:31;;;;;;;19.85;12.73;;;10.90;93.00;;;;;;5091619;28;20043;-34
2024/02/17 03:51:57;;;;;;;21.38;12.73;;;11.00;93.00;;;;;;5091379;28;20496;-37
2024/02/17 03:54:22;;;;;;;21.92;12.48;;;10.90;93.00;;;;;;5091267;28;20078;-36
2024/02/17 03:56:48;;;;;;;20.40;12.48;;;10.90;93.00;;;;;;5091539;28;20016;-34
2024/02/17 03:59:13;;;;;;;21.00;12.45;;;10.90;93.00;;;;;;5091134;28;20020;-36
2024/02/17 04:01:40;;;;;;;19.83;11.77;;;10.90;93.00;;;;;;5091185;28;20027;-37
2024/02/17 04:04:05;;;;;;;16.83;11.15;;;11.00;93.00;;;;;;5091315;28;20016;-37
2024/02/17 04:06:31;;;;;;;22.55;12.45;;;11.00;93.00;;;;;;5091529;28;20059;-31
2024/02/17 04:08:58;;;;;;;20.55;12.90;;;11.00;93.00;;;;;;5091505;28;20016;-36
2024/02/17 04:11:27;;;;;;;20.13;12.60;;;10.90;92.90;;;;;;5091348;28;20115;-30
2024/02/17 04:13:53;;;;;;;19.10;11.90;;;10.90;93.00;;;;;;5091333;28;20465;-30
2024/02/17 04:16:19;;;;;;;19.15;11.75;;;10.90;93.00;;;;;;5091410;28;20020;-30
2024/02/17 04:18:45;;;;;;;18.13;11.70;;;10.90;93.00;;;;;;5090947;28;20066;-31
2024/02/17 04:21:11;;;;;;;18.38;11.68;;;10.90;93.00;;;;;;5091392;28;20032;-30
2024/02/17 04:23:37;;;;;;;20.85;12.27;;;10.90;93.00;;;;;;5091456;28;20521;-31
2024/02/17 04:26:06;;;;;;;20.40;12.48;;;10.90;93.00;;;;;;5091254;28;20024;-30
2024/02/17 04:28:33;;;;;;;20.88;12.57;;;10.90;93.00;;;;;;5091039;28;20038;-33
2024/02/17 04:30:58;;;;;;;20.20;12.82;;;10.90;93.00;;;;;;5090024;28;20354;-30
2024/02/17 04:33:24;;;;;;;19.05;12.13;;;10.90;93.00;;;;;;5092252;28;20047;-31
2024/02/17 04:35:51;;;;;;;19.25;12.82;;;10.90;93.00;;;;;;5094750;28;20020;-31
2024/02/17 04:38:17;;;;;;;21.83;13.13;;;10.90;93.00;;;;;;5095153;28;20461;-30
2024/02/17 04:40:43;;;;;;;21.35;12.85;;;10.90;93.00;;;;;;5094527;28;20028;-33
2024/02/17 04:43:09;;;;;;;19.73;11.68;;;10.90;93.00;;;;;;5094867;28;20050;-32
2024/02/17 04:45:34;;;;;;;20.95;11.55;;;10.90;93.00;;;;;;5094621;28;20024;-31
2024/02/17 04:48:00;;;;;;;19.30;11.52;;;10.90;93.10;;;;;;5093158;28;20013;-32
2024/02/17 04:50:26;;;;;;;18.27;11.45;;;10.90;93.30;;;;;;5094633;28;20103;-31
2024/02/17 04:52:52;;;;;;;16.95;11.77;;;10.90;93.00;;;;;;5094834;28;20366;-31
2024/02/17 04:55:17;;;;;;;20.02;12.15;;;11.00;93.10;;;;;;5094392;28;20470;-31
2024/02/17 04:57:43;;;;;;;18.85;11.55;;;11.00;93.10;;;;;;5093429;28;20023;-32
2024/02/17 05:00:09;;;;;;;17.42;11.18;;;11.00;93.00;;;;;;5094257;28;20056;-31
2024/02/17 05:02:36;;;;;;;20.55;12.35;;;11.00;93.00;;;;;;5094588;28;20457;-31
2024/02/17 05:05:02;;;;;;;21.25;11.98;;;11.00;93.00;;;;;;5094235;28;20263;-34
2024/02/17 05:07:27;;;;;;;18.73;11.32;;;11.00;93.00;;;;;;5094362;28;20028;-30
2024/02/17 05:09:53;;;;;;;19.58;12.00;;;11.00;93.00;;;;;;5094159;28;20083;-34
2024/02/17 05:12:18;;;;;;;17.48;10.75;;;11.00;93.00;;;;;;5094135;28;20024;-32
2024/02/17 05:14:44;;;;;;;19.23;11.15;;;11.00;93.00;;;;;;5094360;28;20460;-32
2024/02/17 05:17:11;;;;;;;19.75;11.63;;;11.00;93.00;;;;;;5094063;28;20033;-32
2024/02/17 05:19:37;;;;;;;17.73;11.18;;;11.00;93.00;;;;;;5094257;28;20507;-31
2024/02/17 05:22:03;;;;;;;16.73;11.25;;;11.00;93.00;;;;;;5093981;28;20040;-30
2024/02/17 05:24:29;;;;;;;18.15;11.00;;;11.00;93.00;;;;;;5094013;28;20019;-31
2024/02/17 05:26:55;;;;;;;21.15;11.10;;;11.00;93.10;;;;;;5094140;28;20031;-31
2024/02/17 05:29:21;;;;;;;17.92;11.07;;;11.00;93.00;;;;;;5094090;28;20020;-31
2024/02/17 05:31:46;;;;;;;17.33;10.93;;;11.00;93.10;;;;;;5093868;28;20032;-30
2024/02/17 05:34:12;;;;;;;20.27;11.20;;;10.90;93.00;;;;;;5093626;28;20040;-33
2024/02/17 05:36:38;;;;;;;20.65;11.65;;;10.90;93.00;;;;;;5093558;28;20071;-34
2024/02/17 05:39:03;;;;;;;18.27;11.05;;;11.00;93.10;;;;;;5093395;28;20024;-32
2024/02/17 05:41:29;;;;;;;18.27;11.00;;;10.90;93.10;;;;;;5093478;28;20029;-30
2024/02/17 05:43:56;;;;;;;19.25;11.07;;;11.00;93.10;;;;;;5093136;28;20028;-30
2024/02/17 05:46:23;;;;;;;19.05;10.95;;;10.90;93.10;;;;;;5092392;28;20024;-32
2024/02/17 05:48:49;;;;;;;17.02;10.57;;;10.90;93.10;;;;;;5093711;28;20114;-30
2024/02/17 05:51:15;;;;;;;21.02;10.52;;;10.90;93.10;;;;;;5093417;28;20039;-29
2024/02/17 05:53:40;;;;;;;18.48;11.23;;;10.90;93.10;;;;;;5093411;28;20024;-33
2024/02/17 05:56:07;;;;;;;16.10;9.98;;;10.90;93.10;;;;;;5093290;28;20035;-31
2024/02/17 05:58:33;;;;;;;16.95;10.82;;;10.90;93.10;;;;;;5093692;28;20020;-31
2024/02/17 06:01:01;;;;;;;18.02;10.35;;;10.90;93.10;;;;;;5093274;28;20028;-31
2024/02/17 06:03:27;;;;;;;27.45;10.63;;;10.90;93.10;;;;;;5093415;28;20031;-31
2024/02/17 06:05:53;;;;;;;18.88;10.18;;;10.90;93.10;;;;;;5093141;28;20520;-31
2024/02/17 06:08:19;;;;;;;19.67;10.70;;;11.00;93.10;;;;;;5093532;28;20453;-33
2024/02/17 06:10:45;;;;;;;20.42;11.57;;;11.00;93.10;;;;;;5093186;28;20074;-32
2024/02/17 06:13:11;;;;;;;16.15;10.10;;;11.00;93.10;;;;;;5093139;28;20032;-32
2024/02/17 06:15:38;;;;;;;19.73;10.80;;;11.00;93.10;;;;;;5091535;28;20446;-31
2024/02/17 06:23:31;;;;;;;15.00;9.65;;;11.10;93.10;;;;;;5092776;28;20059;-33
2024/02/17 06:25:57;;;;;;;15.80;10.20;;;11.10;93.10;;;;;;5092842;28;20060;-31
2024/02/17 06:28:22;;;;;;;15.32;10.30;;;11.10;93.10;;;;;;5092626;28;20020;-37
2024/02/17 06:30:48;;;;;;;17.40;10.80;;;11.10;93.10;;;;;;5092640;28;20076;-31
2024/02/17 06:33:13;;;;;;;14.00;9.55;;;11.10;93.10;;;;;;5092503;28;20099;-32
2024/02/17 06:35:39;;;;;;;18.17;10.48;;;11.10;93.10;;;;;;5092417;28;20016;-33
2024/02/17 06:38:05;;;;;;;21.65;10.82;;;11.00;93.10;;;;;;5092560;28;20027;-31
2024/02/17 06:40:31;;;;;;;21.13;11.43;;;11.00;93.00;;;;;;5092665;28;20031;-32
2024/02/17 06:42:56;;;;;;;14.65;10.13;;;11.00;93.10;;;;;;5092775;28;20019;-29
2024/02/17 06:45:22;;;;;;;19.25;10.45;;;11.00;93.10;;;;;;5092258;28;20039;-34
2024/02/17 06:47:47;;;;;;;17.15;10.40;;;11.00;93.10;;;;;;5092319;28;20027;-30
2024/02/17 06:50:14;;;;;;;16.15;10.80;;;10.90;93.10;;;;;;5092428;28;20020;-31
2024/02/17 06:52:40;;;;;;;17.08;10.63;;;10.90;93.10;;;;;;5092174;28;20055;-31
2024/02/17 06:55:06;;;;;;;15.70;10.35;;;10.90;93.10;;;;;;5092346;28;20465;-33
2024/02/17 06:57:32;;;;;;;18.55;10.35;;;10.90;93.10;;;;;;5091879;28;20032;-30
2024/02/17 06:59:57;;;;;;;17.38;10.65;;;10.90;93.10;;;;;;5092302;28;20023;-29
2024/02/17 07:02:23;;;;;;;19.10;11.05;;;10.90;93.20;;;;;;5092265;28;20500;-30
2024/02/17 07:04:52;;;;;;;14.05;9.63;;;10.90;93.20;;;;;;5091877;28;20067;-30
2024/02/17 07:07:18;;;;;;;15.80;10.23;;;10.90;93.20;;;;;;5092061;28;20034;-30
2024/02/17 07:09:44;;;;;;;16.65;9.52;;;11.00;93.20;;;;;;5091829;28;20050;-35
2024/02/17 07:12:11;;;;;;;14.63;10.15;;;10.90;93.20;;;;;;5091913;28;20024;-30
2024/02/17 07:14:40;;;;;;;16.48;10.63;;;11.00;93.20;;;;;;5091773;28;20031;-33
2024/02/17 07:17:05;;;;;;;17.95;10.23;;;11.00;93.20;;;;;;5091806;28;20040;-30
2024/02/17 07:19:31;;;;;;;16.10;9.77;;;10.90;93.20;;;;;;5091752;28;20059;-32
2024/02/17 07:21:57;;;;;;;14.85;9.98;;;10.90;93.20;;;;;;5091747;28;20035;-30
2024/02/17 07:24:22;;;;;;;14.05;9.77;;;10.90;93.20;;;;;;5091833;28;20652;-32
2024/02/17 07:26:50;;;;;;;15.82;10.02;;;11.00;93.20;;;;;;5091787;28;20103;-30
2024/02/17 07:29:16;;;;;;;13.00;9.70;;;11.00;93.20;;;;;;5091704;28;20043;-30
2024/02/17 07:31:42;;;;;;;17.02;10.95;;;11.00;93.20;;;;;;5091585;28;20058;-36
2024/02/17 07:34:08;;;;;;;16.48;10.40;;;11.00;93.20;;;;;;5091514;28;20040;-35
2024/02/17 07:36:34;;;;;;;18.38;10.07;;;11.00;93.20;;;;;;5091496;28;20028;-32
2024/02/17 07:39:00;;;;;;;14.57;9.40;;;11.00;93.20;;;;;;5091468;28;20042;-34
2024/02/17 07:41:26;;;;;;;18.52;10.43;;;11.00;93.10;;;;;;5091759;28;20024;-31
2024/02/17 07:43:52;;;;;;;18.80;10.55;;;11.00;93.10;;;;;;5091571;28;20027;-31
2024/02/17 07:46:19;;;;;;;17.35;10.27;;;11.00;93.10;;;;;;5091911;28;20032;-31
2024/02/17 07:48:45;;;;;;;15.82;10.15;;;11.00;93.20;;;;;;5091356;28;20081;-31
2024/02/17 07:51:11;;;;;;;16.02;9.73;;;11.00;93.20;;;;;;5091420;28;20146;-32
2024/02/17 07:53:37;;;;;;;15.38;9.75;;;11.00;93.10;;;;;;5091608;28;20024;-31
2024/02/17 07:56:03;;;;;;;14.20;10.30;;;11.00;93.10;;;;;;5089975;28;20464;-30
2024/02/17 07:58:29;;;;;;;15.75;10.18;;;11.00;93.20;;;;;;5091742;28;20452;-33
2024/02/17 08:00:54;;;;;;;19.17;10.77;;;11.00;93.20;;;;;;5091163;28;20100;-32
2024/02/17 08:03:20;;;;;;;16.17;9.55;;;11.10;93.20;;;;;;5091350;28;20009;-33
2024/02/17 08:05:45;;;;;;;18.95;10.82;;;11.10;93.10;;;;;;5091270;28;20058;-31
2024/02/17 08:08:11;;;;;;;16.20;10.70;;;11.20;93.10;;;;;;5093730;28;20476;-34
2024/02/17 08:10:36;;;;;;;17.77;10.38;;;11.20;93.10;;;;;;5095447;28;20480;-33
2024/02/17 08:13:02;;;;;;;18.15;9.60;;;11.30;93.00;;;;;;5095412;28;20028;-33
2024/02/17 08:15:28;;;;;;;17.73;10.50;;;11.30;93.00;;;;;;5095116;28;20110;-31
2024/02/17 08:17:53;;;;;;;17.70;9.73;;;11.40;93.00;;;;;;5095044;28;20020;-31
2024/02/17 08:20:19;;;;;;;14.63;10.15;;;11.40;92.90;;;;;;5095154;28;20051;-31
2024/02/17 08:22:44;;;;;;;18.02;10.10;;;11.40;92.90;;;;;;5095537;28;20373;-34
2024/02/17 08:25:10;;;;;;;14.32;9.70;;;11.50;92.90;;;;;;5095268;28;20020;-30
2024/02/17 08:27:36;;;;;;;16.83;10.65;;;11.50;92.80;;;;;;5095176;28;20024;-34
2024/02/17 08:30:03;;;;;;;15.63;10.02;;;11.50;92.80;;;;;;5095046;28;20031;-31
2024/02/17 08:32:29;;;;;;;15.65;9.18;;;11.60;92.80;;;;;;5095239;28;20020;-32
2024/02/17 08:34:54;;;;;;;12.70;9.40;;;11.60;92.80;;;;;;5094893;28;20063;-32
2024/02/17 08:37:20;;;;;;;22.73;10.90;;;11.70;92.80;;;;;;5094875;28;20361;-31
2024/02/17 08:39:49;;;;;;;26.60;11.32;;;11.70;92.70;;;;;;5094889;28;20077;-33
2024/02/17 08:42:14;;;;;;;24.35;10.95;;;11.70;92.70;;;;;;5094907;28;20020;-35
2024/02/17 08:44:40;;;;;;;22.60;11.25;;;11.80;92.70;;;;;;5095082;28;20085;-31
2024/02/17 08:47:06;;;;;;;17.58;10.65;;;11.80;92.70;;;;;;5094637;28;20107;-30
2024/02/17 08:49:32;;;;;;;26.27;11.15;;;11.90;92.60;;;;;;5094620;28;20028;-31
2024/02/17 08:51:58;;;;;;;21.42;12.10;;;11.90;92.50;;;;;;5094888;28;20066;-30
2024/02/17 08:54:25;;;;;;;19.23;11.20;;;11.80;92.40;;;;;;5094771;28;20023;-30
2024/02/17 08:56:52;;;;;;;20.27;11.57;;;11.80;92.40;;;;;;5094777;28;20039;-33
2024/02/17 08:59:18;;;;;;;18.58;11.05;;;11.80;92.40;;;;;;5094817;28;20024;-31
2024/02/17 09:01:44;;;;;;;18.77;11.50;;;11.80;92.40;;;;;;5094472;28;20380;-30
2024/02/17 09:04:09;;;;;;;19.38;11.52;;;11.80;92.40;;;;;;5094633;28;20540;-32
2024/02/17 09:06:35;;;;;;;19.45;11.02;;;11.90;92.40;;;;;;5094398;28;20059;-31
2024/02/17 09:09:01;;;;;;;20.48;11.73;;;11.90;92.40;;;;;;5094666;28;20016;-33
2024/02/17 09:11:26;;;;;;;21.20;13.18;;;11.90;92.30;;;;;;5094783;28;20028;-31
2024/02/17 09:13:52;;;;;;;22.42;12.73;;;11.90;92.40;;;;;;5094361;28;20388;-30
2024/02/17 09:16:17;;;;;;;19.90;11.80;;;12.00;92.30;;;;;;5094370;28;20054;-33
2024/02/17 09:18:43;;;;;;;19.00;12.23;;;12.00;92.30;;;;;;5093479;28;20021;-36
2024/02/17 09:21:09;;;;;;;19.58;12.68;;;12.00;92.30;;;;;;5094363;28;20016;-32
2024/02/17 09:23:35;;;;;;;19.98;12.00;;;12.10;92.20;;;;;;5092964;28;20016;-30
2024/02/17 09:26:00;;;;;;;18.92;12.38;;;12.10;92.20;;;;;;5094580;28;20370;-33
2024/02/17 09:28:26;;;;;;;21.30;12.55;;;12.10;92.20;;;;;;5094295;28;20028;-31
2024/02/17 09:30:51;;;;;;;19.15;11.88;;;12.20;92.20;;;;;;5093983;28;20035;-32
2024/02/17 09:33:19;;;;;;;21.67;12.50;;;12.20;92.10;;;;;;5092556;28;20057;-38
2024/02/17 09:35:45;;;;;;;22.58;12.77;;;12.30;92.00;;;;;;5094216;28;20404;-33
2024/02/17 09:38:11;;;;;;;19.52;13.10;;;12.30;92.00;;;;;;5092587;28;20020;-32
2024/02/17 09:40:37;;;;;;;19.30;12.18;;;12.30;92.00;;;;;;5094234;28;20472;-33
2024/02/17 09:43:03;;;;;;;17.10;11.50;;;12.30;92.00;;;;;;5092571;28;20032;-32
2024/02/17 09:45:28;;;;;;;22.63;11.00;;;12.40;92.00;;;;;;5093845;28;20020;-32
2024/02/17 09:47:55;;;;;;;21.60;11.27;;;12.40;91.90;;;;;;5093719;28;20024;-41
2024/02/17 09:50:22;;;;;;;17.00;10.82;;;12.40;92.00;;;;;;5093779;28;20519;-31
2024/02/17 09:52:48;;;;;;;15.43;10.88;;;12.50;92.00;;;;;;5094002;28;20418;-33
2024/02/17 09:55:15;;;;;;;16.17;10.70;;;12.50;91.90;;;;;;5093733;28;20652;-35
2024/02/17 09:57:42;;;;;;;18.90;10.98;;;12.60;91.90;;;;;;5093778;28;20022;-31
2024/02/17 10:00:09;;;;;;;17.25;11.05;;;12.70;91.80;;;;;;5094030;28;20504;-31
2024/02/17 10:02:36;;;;;;;15.77;10.55;;;12.70;91.80;;;;;;5093459;28;20047;-35
2024/02/17 10:05:02;;;;;;;17.80;11.35;;;12.70;91.70;;;;;;5093621;28;20028;-35
2024/02/17 10:07:28;;;;;;;17.08;11.05;;;12.70;91.70;;;;;;5093577;28;20035;-33
2024/02/17 10:09:54;;;;;;;16.15;10.60;;;12.80;91.70;;;;;;5093387;28;20070;-35
2024/02/17 10:12:20;;;;;;;15.93;9.88;;;12.80;91.70;;;;;;5093607;28;20024;-32
2024/02/17 10:14:51;;;;;;;16.45;10.50;;;12.80;91.60;;;;;;5093899;28;20111;-34
2024/02/17 10:17:17;;;;;;;15.65;11.18;;;12.90;91.60;;;;;;5093339;28;20073;-35
2024/02/17 10:19:42;;;;;;;19.40;11.45;;;12.90;91.50;;;;;;5093206;28;20024;-34
2024/02/17 10:22:08;;;;;;;15.57;11.48;;;12.80;91.50;;;;;;5093592;28;20020;-34
2024/02/17 10:24:34;;;;;;;18.25;11.60;;;12.90;91.50;;;;;;5091913;28;20016;-34
2024/02/17 10:27:00;;;;;;;15.73;11.02;;;12.90;91.50;;;;;;5093328;28;20019;-39
2024/02/17 10:29:25;;;;;;;21.00;12.25;;;12.90;91.40;;;;;;5093156;28;20024;-34
2024/02/17 10:31:52;;;;;;;19.10;12.25;;;13.00;91.40;;;;;;5093118;28;20063;-32
2024/02/17 10:34:17;;;;;;;19.85;11.65;;;13.00;91.30;;;;;;5092930;28;20047;-32
2024/02/17 10:36:43;;;;;;;14.60;10.32;;;13.00;91.30;;;;;;5093013;28;20468;-33
2024/02/17 10:39:12;;;;;;;15.27;10.75;;;13.00;91.30;;;;;;5093303;28;20120;-33
2024/02/17 10:41:38;;;;;;;17.02;10.38;;;13.00;91.30;;;;;;5093172;28;20476;-31
2024/02/17 10:44:05;;;;;;;14.25;10.98;;;13.00;91.30;;;;;;5091711;28;20016;-30
2024/02/17 10:46:34;;;;;;;17.23;11.10;;;13.10;91.20;;;;;;5092731;28;20115;-32
2024/02/17 10:49:13;;;;;;;16.75;11.32;;;13.10;91.20;;;;;;5093086;28;20095;-34
2024/02/17 10:51:49;;;;;;;15.20;11.05;;;13.10;91.10;;;;;;5093001;28;20077;-34
2024/02/17 10:54:25;;;;;;;16.67;10.70;;;13.10;91.10;;;;;;5092739;28;20038;-31
2024/02/17 10:56:51;;;;;;;14.90;10.23;;;13.10;91.00;;;;;;5092821;28;20412;-31
2024/02/17 10:59:20;;;;;;;14.60;10.52;;;13.20;91.00;;;;;;5092713;28;20023;-32
2024/02/17 11:01:46;;;;;;;15.40;10.18;;;13.10;90.90;;;;;;5092658;28;20089;-34
2024/02/17 11:04:12;;;;;;;13.90;10.00;;;13.20;90.90;;;;;;5092942;28;20560;-38
2024/02/17 11:06:41;;;;;;;14.30;10.40;;;13.20;90.90;;;;;;5092957;28;20031;-40
2024/02/17 11:09:07;;;;;;;14.88;9.38;;;13.20;90.80;;;;;;5092546;28;20119;-34
2024/02/17 11:11:33;;;;;;;12.60;9.48;;;13.20;90.80;;;;;;5093124;28;20064;-36
2024/02/17 11:14:19;;;;;;;14.40;9.43;;;13.30;90.80;;;;;;5092953;28;20020;-33
2024/02/17 11:16:44;;;;;;;15.30;9.52;;;13.30;90.80;;;;;;5092520;28;20031;-33
2024/02/17 11:19:11;;;;;;;15.80;9.80;;;13.30;90.70;;;;;;5092817;28;20030;-32
2024/02/17 11:21:39;;;;;;;16.20;10.55;;;13.30;90.70;;;;;;5092628;28;20055;-30
2024/02/17 11:24:08;;;;;;;16.65;9.75;;;13.30;90.70;;;;;;5092944;28;20024;-31
2024/02/17 11:26:33;;;;;;;13.95;10.23;;;13.20;90.70;;;;;;5092735;28;20020;-32
2024/02/17 11:29:02;;;;;;;13.82;9.35;;;13.20;90.70;;;;;;5092502;28;20620;-33
2024/02/17 11:31:28;;;;;;;17.38;10.23;;;13.30;90.80;;;;;;5092741;28;20020;-31
2024/02/17 11:34:00;;;;;;;14.80;9.13;;;13.30;90.60;;;;;;5092395;28;20050;-31
2024/02/17 11:36:30;;;;;;;14.75;9.10;;;13.30;90.60;;;;;;5091063;28;20387;-36
2024/02/17 11:38:56;;;;;;;14.00;10.05;;;13.20;90.60;;;;;;5090940;28;20107;-35
2024/02/17 11:41:24;;;;;;;15.30;9.93;;;13.30;90.80;;;;;;5092319;28;20056;-34
2024/02/17 11:43:50;;;;;;;16.58;9.70;;;13.30;90.60;;;;;;5092084;28;20024;-33
2024/02/17 11:46:19;;;;;;;15.07;9.13;;;13.30;90.50;;;;;;5092175;28;20028;-35
2024/02/17 11:48:44;;;;;;;12.10;8.43;;;13.30;90.50;;;;;;5092389;28;20414;-32
2024/02/17 11:51:20;;;;;;;12.57;8.50;;;13.30;90.50;;;;;;5092150;28;20053;-33
2024/02/17 11:53:46;;;;;;;12.60;8.88;;;13.40;90.50;;;;;;5092298;28;20437;-32
2024/02/17 11:56:13;;;;;;;14.38;8.95;;;13.50;90.50;;;;;;5092469;28;20020;-33
2024/02/17 11:58:39;;;;;;;15.48;9.32;;;13.50;90.40;;;;;;5090903;28;20032;-31
2024/02/17 12:01:04;;;;;;;17.08;9.63;;;13.50;90.40;;;;;;5092362;28;20023;-34
2024/02/17 12:03:31;;;;;;;14.00;9.15;;;13.50;90.20;;;;;;5092095;28;20024;-31
2024/02/17 12:06:02;;;;;;;14.82;10.23;;;13.40;90.20;;;;;;5092431;28;20028;-33
2024/02/17 12:08:29;;;;;;;14.07;9.57;;;13.40;90.20;;;;;;5092619;28;20020;-32
2024/02/17 12:10:56;;;;;;;14.25;9.52;;;13.30;90.30;;;;;;5091934;28;20056;-32
2024/02/17 12:13:22;;;;;;;16.08;9.30;;;13.30;90.30;;;;;;5092423;28;20024;-32
2024/02/17 12:15:48;;;;;;;15.23;9.95;;;13.30;90.30;;;;;;5092126;28;20384;-35
2024/02/17 12:18:14;;;;;;;14.98;9.20;;;13.30;90.20;;;;;;5091900;28;20099;-35
2024/02/17 12:20:42;;;;;;;13.02;8.50;;;13.30;90.30;;;;;;5092022;28;20034;-32
2024/02/17 12:23:10;;;;;;;15.63;9.23;;;13.30;90.20;;;;;;5091923;28;20099;-35
2024/02/17 12:25:37;;;;;;;15.02;9.30;;;13.30;90.20;;;;;;5091007;28;20051;-32
2024/02/17 12:28:07;;;;;;;18.98;9.90;;;13.30;90.20;;;;;;5091838;28;20120;-35